Time;durP1;ratioP1;P1;durP2;ratioP2;P2;SDS_P1;SDS_P2;PMS_P1;PMS_P2;Temp;Humidity;BMP_temperature;BMP_pressure;BME280_temperature;BME280_humidity;BME280_pressure;Samples;Min_cycle;Max_cycle;Signal;HPM_P1;HPM_P2
2023/11/05 07:45:05;;;;;;;1.75;0.75;;;11.30;99.90;;;;;;5111470;27;20300;-70
2023/11/05 07:47:31;;;;;;;2.05;0.50;;;11.40;99.90;;;;;;5110784;28;20095;-71
2023/11/05 07:49:57;;;;;;;1.50;0.40;;;11.60;99.90;;;;;;5111044;28;20016;-68
2023/11/05 07:52:23;;;;;;;3.30;0.90;;;11.70;99.90;;;;;;5111533;28;20034;-69
2023/11/05 07:54:48;;;;;;;0.30;0.22;;;11.70;99.90;;;;;;5110000;28;20024;-69
2023/11/05 07:57:14;;;;;;;1.60;0.57;;;11.80;99.90;;;;;;5109462;28;20500;-69
2023/11/05 07:59:40;;;;;;;1.70;0.50;;;11.80;99.90;;;;;;5109426;28;20024;-70
2023/11/05 08:02:05;;;;;;;2.27;0.50;;;11.70;99.90;;;;;;5106030;28;20032;-69
2023/11/05 08:04:31;;;;;;;1.92;0.43;;;11.70;99.90;;;;;;5112095;28;20023;-69
2023/11/05 08:06:56;;;;;;;1.57;0.60;;;11.70;99.90;;;;;;5123757;28;20023;-70
2023/11/05 08:09:23;;;;;;;4.20;0.50;;;11.70;99.90;;;;;;5114949;28;20024;-70
2023/11/05 08:11:53;;;;;;;3.85;0.75;;;11.70;99.90;;;;;;5127013;28;20265;-69
2023/11/05 08:14:18;;;;;;;2.40;0.40;;;11.70;99.90;;;;;;5115734;28;20482;-70
2023/11/05 08:16:44;;;;;;;1.33;0.50;;;11.70;99.90;;;;;;5114965;28;20030;-70
2023/11/05 08:19:10;;;;;;;3.53;0.60;;;11.80;99.90;;;;;;5124132;28;20024;-70
2023/11/05 08:21:35;;;;;;;3.23;0.63;;;11.80;99.90;;;;;;5112082;28;20016;-70
2023/11/05 08:24:01;;;;;;;4.10;0.70;;;11.90;99.90;;;;;;5113149;28;20040;-70
2023/11/05 08:26:26;;;;;;;2.77;0.60;;;12.00;99.90;;;;;;5121183;27;20034;-70
2023/11/05 08:28:52;;;;;;;0.80;0.50;;;12.00;99.90;;;;;;5120906;27;20024;-68
2023/11/05 08:31:17;;;;;;;1.23;0.60;;;12.00;99.90;;;;;;5114484;28;20466;-70
2023/11/05 08:33:43;;;;;;;1.13;0.60;;;12.00;99.90;;;;;;5126660;28;20031;-70
2023/11/05 08:36:09;;;;;;;2.13;0.60;;;12.10;99.90;;;;;;5117449;28;20027;-70
2023/11/05 08:38:35;;;;;;;1.90;0.68;;;12.00;99.90;;;;;;5115343;28;20386;-70
2023/11/05 08:41:00;;;;;;;0.90;0.47;;;12.00;99.90;;;;;;5119547;27;20123;-69
2023/11/05 08:43:26;;;;;;;2.47;0.40;;;12.20;99.90;;;;;;5122645;28;20425;-69
2023/11/05 08:45:51;;;;;;;2.30;0.70;;;12.30;99.90;;;;;;5096392;27;20028;-70
2023/11/05 08:48:18;;;;;;;3.03;0.40;;;12.30;99.90;;;;;;5089152;28;20105;-69
2023/11/05 08:50:43;;;;;;;0.77;0.40;;;12.40;99.90;;;;;;5088158;28;20383;-69
2023/11/05 08:53:09;;;;;;;3.10;0.80;;;12.50;99.90;;;;;;5089248;28;20033;-69
2023/11/05 08:55:36;;;;;;;1.53;0.70;;;12.50;99.90;;;;;;5079113;28;20491;-69
2023/11/05 08:58:01;;;;;;;3.65;0.88;;;12.60;99.90;;;;;;5075394;28;20033;-69
2023/11/05 09:00:29;;;;;;;2.87;1.20;;;12.60;99.90;;;;;;5081327;28;20028;-70
2023/11/05 09:02:55;;;;;;;1.70;0.50;;;12.60;99.90;;;;;;5075609;28;20051;-70
2023/11/05 09:05:22;;;;;;;2.70;1.00;;;12.70;99.90;;;;;;5089051;28;20024;-69
2023/11/05 09:07:50;;;;;;;1.48;0.40;;;12.60;99.90;;;;;;5091637;28;20016;-69
2023/11/05 09:10:15;;;;;;;3.50;0.40;;;12.50;99.90;;;;;;5095323;28;20037;-68
2023/11/05 09:12:41;;;;;;;3.43;1.40;;;12.50;99.90;;;;;;5097154;28;20380;-70
2023/11/05 09:15:07;;;;;;;1.60;0.87;;;12.50;99.90;;;;;;5105779;28;20433;-69
2023/11/05 09:17:33;;;;;;;3.80;1.13;;;12.40;99.90;;;;;;5097284;28;20102;-70
2023/11/05 09:19:58;;;;;;;2.30;0.63;;;12.50;99.90;;;;;;5105115;27;20091;-69
2023/11/05 09:22:24;;;;;;;3.60;1.17;;;12.40;99.90;;;;;;5094944;28;20024;-68
2023/11/05 09:24:49;;;;;;;2.43;0.97;;;12.50;99.90;;;;;;5111997;28;20379;-67
2023/11/05 09:27:15;;;;;;;4.30;1.00;;;12.60;99.90;;;;;;5097486;28;20032;-68
2023/11/05 09:29:40;;;;;;;1.60;0.70;;;12.60;99.90;;;;;;5114559;28;20462;-68
2023/11/05 09:32:08;;;;;;;2.07;0.57;;;12.70;99.90;;;;;;5103377;28;20496;-67
2023/11/05 09:34:34;;;;;;;1.85;0.30;;;12.70;99.90;;;;;;5111175;28;20111;-68
2023/11/05 09:37:00;;;;;;;1.58;0.52;;;12.50;99.90;;;;;;5113806;28;20077;-68
2023/11/05 09:39:26;;;;;;;2.47;1.00;;;12.50;99.90;;;;;;5108766;28;20024;-68
2023/11/05 09:41:52;;;;;;;;;;;12.50;99.90;;;;;;5095375;28;20055;-67
2023/11/05 09:44:21;;;;;;;3.80;1.05;;;12.50;99.90;;;;;;5094388;28;19958;-67
2023/11/05 09:46:50;;;;;;;2.35;0.90;;;12.70;99.90;;;;;;5092446;28;20027;-68
2023/11/05 09:49:15;;;;;;;1.52;0.75;;;12.80;99.90;;;;;;5082478;28;20102;-69
2023/11/05 09:51:45;;;;;;;2.63;1.07;;;12.80;99.90;;;;;;5111901;28;20045;-68
2023/11/05 09:54:11;;;;;;;2.00;0.75;;;12.80;99.90;;;;;;5099479;28;20026;-68
2023/11/05 09:56:37;;;;;;;3.03;0.93;;;12.80;99.90;;;;;;5115577;27;20024;-68
2023/11/05 09:59:02;;;;;;;0.70;0.50;;;12.60;99.90;;;;;;5114858;28;20035;-69
2023/11/05 10:01:30;;;;;;;2.23;0.53;;;12.40;99.90;;;;;;5116162;28;20376;-69
2023/11/05 10:03:56;;;;;;;3.15;0.90;;;12.20;99.90;;;;;;5115388;28;20543;-71
2023/11/05 10:06:22;;;;;;;2.17;0.60;;;12.10;99.90;;;;;;5091081;28;20340;-71
2023/11/05 10:08:47;;;;;;;3.00;0.60;;;11.90;99.90;;;;;;5072898;28;20024;-72
2023/11/05 10:11:13;;;;;;;2.67;1.00;;;11.80;99.90;;;;;;5071418;28;20021;-73
2023/11/05 10:13:39;;;;;;;2.23;0.50;;;11.80;99.90;;;;;;5071181;28;20047;-69
2023/11/05 10:16:06;;;;;;;3.72;1.13;;;11.60;99.90;;;;;;5071030;28;20681;-69
2023/11/05 10:18:36;;;;;;;;;;;11.60;99.90;;;;;;5072599;28;20036;-69
2023/11/05 10:21:05;;;;;;;4.20;1.63;;;11.70;99.90;;;;;;5071896;28;20517;-68
2023/11/05 10:23:47;;;;;;;4.15;1.77;;;11.70;99.90;;;;;;5071445;28;20032;-68
2023/11/05 10:26:28;;;;;;;5.90;1.13;;;11.70;99.90;;;;;;5074371;28;20506;-69
2023/11/05 10:28:54;;;;;;;3.00;0.85;;;11.80;99.90;;;;;;5074113;28;20475;-68
2023/11/05 10:31:22;;;;;;;1.38;0.45;;;11.80;99.90;;;;;;5073972;28;20020;-69
2023/11/05 10:33:50;;;;;;;3.15;0.60;;;11.80;99.90;;;;;;5074322;28;20483;-69
2023/11/05 10:36:16;;;;;;;2.17;0.47;;;11.80;99.90;;;;;;5085805;28;20123;-68
2023/11/05 10:38:42;;;;;;;2.00;0.40;;;11.70;99.90;;;;;;5092738;28;20071;-69
2023/11/05 10:41:10;;;;;;;2.72;0.63;;;11.60;99.90;;;;;;5094245;28;20076;-68
2023/11/05 10:43:36;;;;;;;1.30;0.68;;;11.50;99.90;;;;;;5093491;28;20036;-68
2023/11/05 10:46:03;;;;;;;0.93;0.45;;;11.40;99.90;;;;;;5087418;28;20374;-68
2023/11/05 10:48:29;;;;;;;2.70;0.75;;;11.50;99.90;;;;;;5074006;28;20025;-68
2023/11/05 10:50:56;;;;;;;2.35;0.80;;;11.50;99.90;;;;;;5071902;28;20031;-68
2023/11/05 10:53:22;;;;;;;3.58;0.82;;;11.50;99.90;;;;;;5073829;28;20340;-68
2023/11/05 10:55:49;;;;;;;4.43;0.40;;;11.50;99.90;;;;;;5074581;28;20017;-69
2023/11/05 10:58:19;;;;;;;;;;;11.50;99.90;;;;;;5073962;28;20025;-68
2023/11/05 11:00:48;;;;;;;3.97;0.80;;;11.50;99.90;;;;;;5074635;28;19940;-69
2023/11/05 11:03:14;;;;;;;3.45;0.63;;;11.50;99.90;;;;;;5088923;28;20070;-68
2023/11/05 11:05:53;;;;;;;1.70;0.70;;;11.60;99.90;;;;;;5080164;28;20520;-68
2023/11/05 11:08:23;;;;;;;1.45;0.55;;;11.80;99.90;;;;;;5089865;28;20081;-68
2023/11/05 11:11:04;;;;;;;1.92;0.70;;;12.00;99.90;;;;;;5072373;28;20395;-71
2023/11/05 11:13:30;;;;;;;2.45;0.70;;;12.00;99.90;;;;;;5089627;28;20164;-72
2023/11/05 11:16:00;;;;;;;4.68;1.25;;;11.90;99.90;;;;;;5094350;28;20386;-71
2023/11/05 11:18:29;;;;;;;3.80;0.52;;;12.00;99.90;;;;;;5093600;28;20032;-74
2023/11/05 11:20:56;;;;;;;1.30;0.52;;;12.10;99.90;;;;;;5092008;28;20115;-73
2023/11/05 11:23:22;;;;;;;1.45;0.65;;;12.10;99.90;;;;;;5091897;28;20028;-72
2023/11/05 11:26:17;;;;;;;2.17;0.70;;;12.30;99.90;;;;;;5092620;28;20085;-73
2023/11/05 11:28:42;;;;;;;2.67;1.02;;;12.40;99.90;;;;;;5093647;28;20028;-71
2023/11/05 11:31:08;;;;;;;1.83;0.77;;;12.50;99.90;;;;;;5093461;28;20073;-74
2023/11/05 11:33:34;;;;;;;0.60;0.40;;;12.70;99.90;;;;;;5082177;28;20035;-74
2023/11/05 11:36:00;;;;;;;1.83;0.80;;;12.70;99.90;;;;;;5089734;28;20040;-74
2023/11/05 11:38:26;;;;;;;1.45;0.40;;;12.60;99.90;;;;;;5070154;28;20120;-72
2023/11/05 11:40:58;;;;;;;4.23;0.63;;;12.50;99.90;;;;;;5070677;28;20055;-72
2023/11/05 11:43:27;;;;;;;1.90;0.55;;;12.40;99.90;;;;;;5071379;28;20024;-72
2023/11/05 11:45:53;;;;;;;2.08;0.68;;;12.40;99.90;;;;;;5090580;28;20024;-73
2023/11/05 11:48:25;;;;;;;2.22;1.38;;;12.30;99.90;;;;;;5105538;28;20052;-72
2023/11/05 11:50:56;;;;;;;1.85;1.30;;;12.30;99.90;;;;;;5095355;28;20038;-70
2023/11/05 11:53:32;;;;;;;2.20;0.60;;;12.30;99.90;;;;;;5108579;28;20103;-70
2023/11/05 11:56:02;;;;;;;8.68;2.42;;;12.40;99.90;;;;;;5096708;28;20032;-70
2023/11/05 11:58:27;;;;;;;3.83;1.80;;;12.50;99.90;;;;;;5112453;28;20042;-72
2023/11/05 12:00:56;;;;;;;3.90;0.93;;;12.50;99.90;;;;;;5107948;28;20028;-76
2023/11/05 12:03:23;;;;;;;6.65;1.83;;;12.60;99.90;;;;;;5090192;28;20028;-73
2023/11/05 12:05:50;;;;;;;3.92;1.30;;;12.70;99.90;;;;;;5094972;28;20032;-70
2023/11/05 12:08:44;;;;;;;6.95;2.25;;;12.80;99.90;;;;;;5109933;28;20137;-73
2023/11/05 12:11:11;;;;;;;1.55;0.60;;;12.90;99.90;;;;;;5078166;28;20025;-74
2023/11/05 12:13:44;;;;;;;6.65;1.67;;;12.80;99.90;;;;;;5085811;28;20047;-74
2023/11/05 12:16:11;;;;;;;13.25;2.53;;;12.90;99.90;;;;;;5084810;28;20112;-75
2023/11/05 12:18:42;;;;;;;13.07;3.58;;;12.90;99.90;;;;;;5111165;28;20390;-71
2023/11/05 12:21:10;;;;;;;2.08;0.60;;;12.80;99.90;;;;;;5108970;28;20048;-74
2023/11/05 12:23:36;;;;;;;3.65;1.10;;;12.70;99.90;;;;;;5088147;28;20032;-74
2023/11/05 12:26:03;;;;;;;3.22;1.17;;;12.70;99.90;;;;;;5097415;28;20020;-74
2023/11/05 12:28:29;;;;;;;2.53;0.85;;;12.70;99.90;;;;;;5096352;28;20032;-73
2023/11/05 12:30:59;;;;;;;;;;;12.70;99.90;;;;;;5091203;28;20028;-70
2023/11/05 12:33:25;;;;;;;12.82;2.92;;;12.90;99.90;;;;;;5101976;28;19934;-68
2023/11/05 12:35:55;;;;;;;5.03;0.80;;;13.00;99.90;;;;;;5097971;28;20020;-72
2023/11/05 12:38:22;;;;;;;6.90;1.92;;;13.00;99.90;;;;;;5107561;28;20028;-74
2023/11/05 12:40:48;;;;;;;5.55;1.45;;;13.10;99.90;;;;;;5113488;28;20027;-73
2023/11/05 12:43:14;;;;;;;4.38;0.77;;;13.20;99.90;;;;;;5102042;28;20024;-70
2023/11/05 12:45:40;;;;;;;2.47;0.82;;;13.40;99.90;;;;;;5093211;28;20154;-70
2023/11/05 12:48:06;;;;;;;2.73;0.80;;;13.60;99.90;;;;;;5083981;28;20033;-70
2023/11/05 12:50:32;;;;;;;3.17;0.90;;;13.70;99.90;;;;;;5088358;28;20589;-69
2023/11/05 12:52:57;;;;;;;2.92;0.80;;;13.90;99.90;;;;;;5085324;28;20139;-70
2023/11/05 12:55:23;;;;;;;1.33;0.70;;;14.00;99.90;;;;;;5085083;28;20025;-70
2023/11/05 12:57:48;;;;;;;1.73;0.60;;;14.10;99.90;;;;;;5094264;28;20146;-75
2023/11/05 13:00:15;;;;;;;1.77;0.43;;;14.10;99.90;;;;;;5105505;28;20029;-72
2023/11/05 13:02:41;;;;;;;2.58;0.90;;;14.10;99.90;;;;;;5113039;28;20451;-73
2023/11/05 13:05:07;;;;;;;1.30;0.40;;;14.00;99.90;;;;;;5107029;28;20169;-69
2023/11/05 13:07:34;;;;;;;2.40;0.70;;;14.00;99.90;;;;;;5094543;28;20063;-68
2023/11/05 13:10:00;;;;;;;1.95;0.50;;;14.00;99.90;;;;;;5094640;28;20430;-67
2023/11/05 13:12:26;;;;;;;1.25;0.90;;;13.90;99.90;;;;;;5097792;28;20027;-67
2023/11/05 13:14:51;;;;;;;2.73;0.83;;;13.80;99.90;;;;;;5109523;28;20115;-67
2023/11/05 13:17:17;;;;;;;4.53;0.70;;;13.80;99.90;;;;;;5105215;28;20026;-67
2023/11/05 13:19:43;;;;;;;2.42;0.50;;;13.80;99.90;;;;;;5110626;28;20493;-67
2023/11/05 13:22:08;;;;;;;1.73;0.50;;;13.80;99.90;;;;;;5098749;28;20470;-69
2023/11/05 13:24:34;;;;;;;1.73;0.57;;;13.70;99.90;;;;;;5109916;28;20105;-72
2023/11/05 13:27:00;;;;;;;2.88;0.75;;;13.60;99.90;;;;;;5107494;28;20494;-67
2023/11/05 13:29:26;;;;;;;2.37;0.57;;;13.60;99.90;;;;;;5094894;28;20518;-68
2023/11/05 13:31:51;;;;;;;2.65;0.63;;;13.60;99.90;;;;;;5096673;28;20511;-70
2023/11/05 13:34:17;;;;;;;3.90;1.00;;;13.50;99.90;;;;;;5107636;28;20043;-70
2023/11/05 13:36:46;;;;;;;1.37;0.50;;;13.50;99.90;;;;;;5099401;28;20032;-73
2023/11/05 13:39:12;;;;;;;2.53;0.60;;;13.50;99.90;;;;;;5097023;28;20024;-68
2023/11/05 13:41:38;;;;;;;6.95;1.00;;;13.40;99.90;;;;;;5099069;28;20040;-72
2023/11/05 13:44:05;;;;;;;1.97;0.70;;;13.30;99.90;;;;;;5095855;28;20058;-68
2023/11/05 13:46:31;;;;;;;3.55;0.50;;;13.30;99.90;;;;;;5097853;28;20258;-68
2023/11/05 13:48:56;;;;;;;2.97;0.88;;;13.30;99.90;;;;;;5100757;28;20023;-69
2023/11/05 13:51:22;;;;;;;2.17;0.37;;;13.30;99.90;;;;;;5099673;28;20102;-68
2023/11/05 13:53:53;;;;;;;3.80;0.60;;;13.20;99.90;;;;;;5098612;28;20028;-73
2023/11/05 13:56:19;;;;;;;2.70;0.60;;;13.20;99.90;;;;;;5097274;28;20031;-73
2023/11/05 13:58:44;;;;;;;1.60;0.50;;;13.30;99.90;;;;;;5100766;28;20024;-69
2023/11/05 14:01:09;;;;;;;1.53;0.30;;;13.40;99.90;;;;;;5113786;28;20504;-70
2023/11/05 14:03:35;;;;;;;1.77;0.40;;;13.40;99.90;;;;;;5102388;28;20039;-69
2023/11/05 14:06:01;;;;;;;2.77;0.60;;;13.40;99.90;;;;;;5096769;28;20027;-69
2023/11/05 14:08:26;;;;;;;1.63;0.53;;;13.40;99.90;;;;;;5102907;28;20401;-70
2023/11/05 14:10:52;;;;;;;3.83;0.57;;;13.40;99.90;;;;;;5072959;28;20054;-69
2023/11/05 14:13:18;;;;;;;1.13;0.43;;;13.40;99.90;;;;;;5074455;28;20372;-69
2023/11/05 14:15:43;;;;;;;1.57;0.40;;;13.40;99.90;;;;;;5072775;28;20029;-70
2023/11/05 14:18:09;;;;;;;2.30;0.60;;;13.40;99.90;;;;;;5074084;28;20092;-69
2023/11/05 14:20:34;;;;;;;0.67;0.40;;;13.40;99.90;;;;;;5073832;28;20028;-70
2023/11/05 14:23:00;;;;;;;1.87;0.33;;;13.40;99.90;;;;;;5077471;28;20024;-69
2023/11/05 14:25:25;;;;;;;1.90;0.43;;;13.40;99.90;;;;;;5099124;28;20032;-70
2023/11/05 14:27:51;;;;;;;3.00;0.40;;;13.50;99.90;;;;;;5114310;28;20020;-69
2023/11/05 14:30:17;;;;;;;0.60;0.40;;;13.50;99.90;;;;;;5093898;28;20357;-69
2023/11/05 14:32:42;;;;;;;0.90;0.63;;;13.40;99.90;;;;;;5094107;28;20036;-69
2023/11/05 14:35:09;;;;;;;1.00;0.40;;;13.40;99.90;;;;;;5092602;28;20281;-70
2023/11/05 14:37:35;;;;;;;;;;;13.30;99.90;;;;;;5092001;28;20491;-69
2023/11/05 14:40:00;;;;;;;1.20;0.45;;;13.40;99.90;;;;;;5074417;28;19947;-70
2023/11/05 14:42:26;;;;;;;2.13;0.40;;;13.30;99.90;;;;;;5073922;28;20061;-69
2023/11/05 14:44:52;;;;;;;1.75;0.43;;;13.20;99.90;;;;;;5073835;28;20037;-69
2023/11/05 14:47:17;;;;;;;0.90;0.40;;;13.30;99.90;;;;;;5094362;28;20020;-68
2023/11/05 14:49:43;;;;;;;1.17;0.40;;;13.30;99.90;;;;;;5097490;28;20443;-69
2023/11/05 14:52:08;;;;;;;0.83;0.50;;;13.20;99.90;;;;;;5094115;28;20024;-69
2023/11/05 14:54:35;;;;;;;2.20;0.43;;;13.20;99.90;;;;;;5093263;28;20103;-70
2023/11/05 14:57:01;;;;;;;2.65;0.60;;;13.10;99.90;;;;;;5081072;28;20043;-69
2023/11/05 14:59:26;;;;;;;3.15;2.20;;;13.00;99.90;;;;;;5089421;28;20032;-69
2023/11/05 15:01:52;;;;;;;0.90;0.40;;;13.10;99.90;;;;;;5093427;28;20036;-69
2023/11/05 15:04:17;;;;;;;3.53;0.63;;;12.90;99.90;;;;;;5093536;28;20028;-68
2023/11/05 15:06:43;;;;;;;2.03;0.60;;;12.80;99.90;;;;;;5088609;28;20016;-69
2023/11/05 15:09:10;;;;;;;4.00;0.50;;;12.80;99.90;;;;;;5073242;28;20430;-69
2023/11/05 15:11:35;;;;;;;2.25;0.43;;;12.70;99.90;;;;;;5073514;28;20052;-69
2023/11/05 15:14:01;;;;;;;1.58;0.60;;;12.70;99.90;;;;;;5072080;28;20071;-68
2023/11/05 15:16:29;;;;;;;3.67;1.05;;;12.80;99.90;;;;;;5073408;28;20085;-71
2023/11/05 15:18:55;;;;;;;1.90;0.85;;;12.80;99.90;;;;;;5090102;28;20024;-73
2023/11/05 15:21:21;;;;;;;2.97;0.60;;;12.70;99.90;;;;;;5079732;28;20051;-72
2023/11/05 15:23:47;;;;;;;1.95;0.50;;;12.60;99.90;;;;;;5073476;28;20017;-72
2023/11/05 15:26:21;;;;;;;1.17;0.50;;;12.50;99.90;;;;;;5073059;28;20047;-73
2023/11/05 15:28:46;;;;;;;0.55;0.50;;;12.50;99.90;;;;;;5071574;28;20075;-69
2023/11/05 15:31:12;;;;;;;1.80;0.77;;;12.70;99.90;;;;;;5071983;28;20404;-68
2023/11/05 15:33:38;;;;;;;4.23;0.90;;;12.60;99.90;;;;;;5072570;28;20029;-67
2023/11/05 15:36:09;;;;;;;4.70;1.17;;;12.70;99.90;;;;;;5083116;28;20024;-68
2023/11/05 15:38:35;;;;;;;2.30;0.80;;;12.70;99.90;;;;;;5090704;28;20016;-68
2023/11/05 15:41:02;;;;;;;2.33;1.05;;;12.60;99.90;;;;;;5093141;28;20085;-68
2023/11/05 15:43:28;;;;;;;6.07;0.98;;;12.60;99.90;;;;;;5087456;28;20142;-66
2023/11/05 15:45:55;;;;;;;3.08;1.10;;;12.50;99.90;;;;;;5073824;28;20025;-68
2023/11/05 15:48:21;;;;;;;2.28;0.98;;;12.50;99.90;;;;;;5072816;28;20028;-69
2023/11/05 15:50:47;;;;;;;4.55;1.23;;;12.60;99.90;;;;;;5075152;28;20047;-69
2023/11/05 15:53:12;;;;;;;3.70;1.20;;;12.60;99.90;;;;;;5071557;28;20470;-69
2023/11/05 15:55:38;;;;;;;3.03;0.77;;;12.60;99.90;;;;;;5072681;28;20033;-69
2023/11/05 15:58:04;;;;;;;3.30;1.07;;;12.60;99.90;;;;;;5073237;28;20033;-72
2023/11/05 16:00:31;;;;;;;3.13;1.00;;;12.60;99.90;;;;;;5081122;28;20482;-71
2023/11/05 16:02:57;;;;;;;2.58;0.90;;;12.70;99.90;;;;;;5080219;28;20063;-70
2023/11/05 16:05:24;;;;;;;5.43;1.00;;;12.70;99.90;;;;;;5079142;28;20092;-70
2023/11/05 16:07:49;;;;;;;;;;;12.60;99.90;;;;;;5095293;28;20020;-70
2023/11/05 16:10:15;;;;;;;6.25;1.70;;;12.60;99.90;;;;;;5095968;28;20057;-71
2023/11/05 16:12:40;;;;;;;1.50;0.80;;;12.40;99.90;;;;;;5097712;28;20051;-69
2023/11/05 16:15:07;;;;;;;3.40;1.47;;;12.20;99.90;;;;;;5097378;28;20031;-69
2023/11/05 16:17:33;;;;;;;4.10;1.10;;;12.10;99.90;;;;;;5096673;28;20023;-69
2023/11/05 16:19:59;;;;;;;3.28;1.10;;;11.80;99.90;;;;;;5096520;28;20035;-67
2023/11/05 16:22:26;;;;;;;4.15;1.30;;;11.60;99.90;;;;;;5094615;28;20395;-73
2023/11/05 16:24:52;;;;;;;5.05;2.17;;;11.40;99.90;;;;;;5095802;28;20032;-72
2023/11/05 16:27:17;;;;;;;6.30;1.33;;;11.30;99.90;;;;;;5096057;28;20103;-69
2023/11/05 16:29:44;;;;;;;5.10;1.67;;;11.30;99.90;;;;;;5097152;28;20157;-70
2023/11/05 16:32:10;;;;;;;2.72;1.30;;;11.30;99.90;;;;;;5090106;28;20020;-70
2023/11/05 16:34:40;;;;;;;;;;;11.20;99.90;;;;;;5077485;28;20034;-69
2023/11/05 16:37:05;;;;;;;4.63;1.50;;;11.20;99.90;;;;;;5098095;28;19967;-70
2023/11/05 16:39:31;;;;;;;4.07;1.80;;;11.20;99.90;;;;;;5099356;28;20103;-71
2023/11/05 16:41:56;;;;;;;2.77;1.40;;;11.10;99.90;;;;;;5095729;28;20088;-69
2023/11/05 16:44:22;;;;;;;3.60;1.60;;;11.20;99.90;;;;;;5078587;28;20037;-70
2023/11/05 16:46:47;;;;;;;2.27;1.00;;;11.30;99.90;;;;;;5075902;28;20020;-70
2023/11/05 16:49:14;;;;;;;2.70;1.30;;;11.40;99.90;;;;;;5076323;28;20051;-70
2023/11/05 16:51:44;;;;;;;3.15;1.40;;;11.40;99.90;;;;;;5082984;28;20023;-70
2023/11/05 16:54:11;;;;;;;2.85;1.13;;;11.60;99.90;;;;;;5093194;28;20021;-70
2023/11/05 16:56:37;;;;;;;;;;;11.60;99.90;;;;;;5090581;28;20036;-69
2023/11/05 16:59:03;;;;;;;2.72;1.00;;;11.80;99.90;;;;;;5096959;28;19912;-70
2023/11/05 17:01:29;;;;;;;3.78;1.40;;;11.80;99.90;;;;;;5083504;28;20102;-69
2023/11/05 17:03:55;;;;;;;4.95;2.17;;;11.90;99.90;;;;;;5081617;28;20484;-70
2023/11/05 17:06:20;;;;;;;11.93;7.73;;;11.90;99.90;;;;;;5085977;28;20077;-69
2023/11/05 17:08:46;;;;;;;2.95;1.20;;;11.90;99.90;;;;;;5089511;28;20844;-70
2023/11/05 17:11:12;;;;;;;3.90;1.30;;;11.90;99.90;;;;;;5082396;28;20368;-68
2023/11/05 17:13:38;;;;;;;5.15;2.25;;;12.00;99.90;;;;;;5093155;28;20115;-71
2023/11/05 17:16:05;;;;;;;3.23;1.30;;;11.90;99.90;;;;;;5088455;28;20063;-71
2023/11/05 17:18:31;;;;;;;3.25;1.30;;;11.80;99.90;;;;;;5082655;28;20314;-71
2023/11/05 17:20:56;;;;;;;3.55;1.10;;;11.80;99.90;;;;;;5084885;28;20024;-69
2023/11/05 17:23:23;;;;;;;3.85;1.10;;;11.90;99.90;;;;;;5087842;28;20073;-69
2023/11/05 17:25:48;;;;;;;;;;;12.00;99.90;;;;;;5076761;28;20032;-69
2023/11/05 17:28:14;;;;;;;3.13;1.10;;;12.10;99.90;;;;;;5075570;28;19905;-73
2023/11/05 17:30:40;;;;;;;2.75;1.48;;;12.00;99.90;;;;;;5076180;28;20021;-71
2023/11/05 17:33:06;;;;;;;5.82;1.75;;;12.10;99.90;;;;;;5076896;28;20066;-73
2023/11/05 17:35:31;;;;;;;4.40;1.60;;;12.10;99.90;;;;;;5086724;28;20031;-70
2023/11/05 17:37:57;;;;;;;4.50;1.20;;;12.00;99.90;;;;;;5076665;28;20479;-72
2023/11/05 17:40:23;;;;;;;3.90;2.33;;;12.10;99.90;;;;;;5079001;28;20016;-72
2023/11/05 17:42:48;;;;;;;8.37;2.03;;;12.20;99.90;;;;;;5094207;28;20111;-72
2023/11/05 17:45:14;;;;;;;5.00;1.47;;;12.20;99.90;;;;;;5096312;28;20024;-73
2023/11/05 17:47:43;;;;;;;2.53;1.37;;;12.20;99.90;;;;;;5084655;28;20026;-73
2023/11/05 17:50:11;;;;;;;4.97;1.10;;;12.20;99.90;;;;;;5074355;28;20052;-69
2023/11/05 17:52:37;;;;;;;4.45;1.30;;;12.20;99.90;;;;;;5075054;28;20028;-70
2023/11/05 17:55:04;;;;;;;5.20;1.20;;;12.20;99.90;;;;;;5075312;28;20067;-70
2023/11/05 17:57:30;;;;;;;3.88;1.60;;;12.10;99.90;;;;;;5090581;28;20904;-70
2023/11/05 17:59:56;;;;;;;3.87;1.53;;;12.20;99.90;;;;;;5073762;28;20123;-69
2023/11/05 18:02:23;;;;;;;3.85;1.00;;;12.20;99.90;;;;;;5073536;28;20173;-69
2023/11/05 18:04:49;;;;;;;5.88;1.00;;;12.20;99.90;;;;;;5075018;28;20028;-70
2023/11/05 18:07:15;;;;;;;3.30;1.20;;;12.30;99.90;;;;;;5093780;28;20017;-69
2023/11/05 18:09:40;;;;;;;4.47;1.15;;;12.30;99.90;;;;;;5090578;28;20479;-69
2023/11/05 18:12:06;;;;;;;1.80;1.00;;;12.20;99.90;;;;;;5094966;28;20028;-70
2023/11/05 18:14:32;;;;;;;4.30;1.80;;;12.20;99.90;;;;;;5095090;28;20085;-68
2023/11/05 18:16:58;;;;;;;3.10;1.17;;;12.30;99.90;;;;;;5093612;28;20028;-68
2023/11/05 18:19:23;;;;;;;3.05;1.10;;;12.20;99.90;;;;;;5084714;28;20380;-69
2023/11/05 18:21:49;;;;;;;4.27;1.20;;;12.20;99.90;;;;;;5074530;28;20043;-69
2023/11/05 18:24:15;;;;;;;5.00;1.30;;;12.20;99.90;;;;;;5074220;28;20031;-69
2023/11/05 18:26:41;;;;;;;4.47;1.25;;;12.20;99.90;;;;;;5074486;28;20487;-70
2023/11/05 18:29:07;;;;;;;4.65;1.58;;;12.10;99.90;;;;;;5077827;28;20036;-70
2023/11/05 18:31:33;;;;;;;2.53;0.97;;;12.10;99.90;;;;;;5083295;28;20028;-69
2023/11/05 18:34:03;;;;;;;13.30;5.55;;;12.10;99.90;;;;;;5104173;28;20031;-70
2023/11/05 18:36:29;;;;;;;3.95;1.25;;;12.20;99.90;;;;;;5089899;28;20032;-69
2023/11/05 18:38:54;;;;;;;3.33;0.98;;;12.30;99.90;;;;;;5090940;28;20061;-69
2023/11/05 18:41:20;;;;;;;2.37;0.87;;;12.30;99.90;;;;;;5072974;28;20483;-69
2023/11/05 18:43:46;;;;;;;3.93;1.00;;;12.20;99.90;;;;;;5089214;28;20464;-69
2023/11/05 18:46:18;;;;;;;4.53;1.20;;;12.30;99.90;;;;;;5075597;28;20070;-69
2023/11/05 18:48:44;;;;;;;3.42;0.77;;;12.20;99.90;;;;;;5093235;28;20059;-69
2023/11/05 18:51:10;;;;;;;4.57;1.48;;;12.30;99.90;;;;;;5093701;28;20102;-70
2023/11/05 18:53:35;;;;;;;3.80;1.40;;;12.20;99.90;;;;;;5094896;28;20070;-69
2023/11/05 18:56:02;;;;;;;7.63;3.80;;;12.30;99.90;;;;;;5095250;28;20532;-69
2023/11/05 18:58:28;;;;;;;4.35;1.73;;;12.30;99.90;;;;;;5095666;28;20031;-70
2023/11/05 19:00:53;;;;;;;3.63;1.10;;;12.30;99.90;;;;;;5092826;28;20028;-70
2023/11/05 19:03:21;;;;;;;8.70;3.03;;;12.30;99.90;;;;;;5094259;28;20290;-70
2023/11/05 19:05:47;;;;;;;2.75;0.82;;;12.30;99.90;;;;;;5102201;28;20469;-70
2023/11/05 19:08:12;;;;;;;9.50;1.53;;;12.20;99.90;;;;;;5115177;28;20038;-70
2023/11/05 19:10:38;;;;;;;4.43;0.93;;;12.10;99.90;;;;;;5113033;28;20081;-70
2023/11/05 19:13:04;;;;;;;4.28;1.48;;;12.10;99.90;;;;;;5076477;28;20016;-71
2023/11/05 19:15:30;;;;;;;7.97;2.03;;;12.00;99.90;;;;;;5072432;28;20040;-71
2023/11/05 19:17:56;;;;;;;8.20;1.80;;;12.10;99.90;;;;;;5071518;28;20035;-69
2023/11/05 19:20:21;;;;;;;5.40;1.52;;;12.00;99.90;;;;;;5074207;28;20020;-69
2023/11/05 19:22:47;;;;;;;5.77;1.23;;;12.00;99.90;;;;;;5072298;28;20031;-70
2023/11/05 19:25:13;;;;;;;5.80;2.23;;;12.00;99.90;;;;;;5073990;28;20036;-68
2023/11/05 19:27:38;;;;;;;5.10;1.90;;;11.90;99.90;;;;;;5084609;28;20098;-70
2023/11/05 19:30:05;;;;;;;3.92;1.15;;;11.90;99.90;;;;;;5093423;28;20020;-68
2023/11/05 19:32:31;;;;;;;5.53;1.40;;;11.90;99.90;;;;;;5093014;28;20039;-68
2023/11/05 19:34:57;;;;;;;7.68;1.40;;;11.90;99.90;;;;;;5093644;28;20035;-70
2023/11/05 19:37:23;;;;;;;3.85;1.15;;;11.90;99.90;;;;;;5072751;28;20028;-70
2023/11/05 19:39:48;;;;;;;6.30;1.40;;;11.90;99.90;;;;;;5074680;28;20107;-69
2023/11/05 19:42:15;;;;;;;8.33;2.53;;;11.90;99.90;;;;;;5094200;28;20059;-69
2023/11/05 19:44:41;;;;;;;6.22;1.35;;;11.90;99.90;;;;;;5095876;28;20043;-69
2023/11/05 19:47:06;;;;;;;4.68;1.20;;;11.90;99.90;;;;;;5097497;28;20024;-69
2023/11/05 19:49:32;;;;;;;7.20;1.37;;;11.90;99.90;;;;;;5084763;28;20164;-70
2023/11/05 19:52:00;;;;;;;6.60;1.60;;;12.00;99.90;;;;;;5083848;28;20339;-70
2023/11/05 19:54:25;;;;;;;8.13;1.80;;;12.00;99.90;;;;;;5081310;28;20028;-69
2023/11/05 19:56:51;;;;;;;5.07;1.10;;;12.10;99.90;;;;;;5078715;28;20470;-69
2023/11/05 19:59:17;;;;;;;6.77;2.33;;;12.10;99.90;;;;;;5076284;28;20055;-70
2023/11/05 20:01:45;;;;;;;6.20;1.50;;;12.20;99.90;;;;;;5076565;28;20432;-71
2023/11/05 20:04:12;;;;;;;10.05;2.17;;;12.30;99.90;;;;;;5103555;28;20289;-69
2023/11/05 20:06:39;;;;;;;4.80;1.52;;;12.30;99.90;;;;;;5122519;28;20016;-69
2023/11/05 20:09:04;;;;;;;5.23;1.67;;;12.30;99.90;;;;;;5120254;28;20084;-70
2023/11/05 20:11:30;;;;;;;7.57;2.43;;;12.30;99.90;;;;;;5105354;28;20391;-69
2023/11/05 20:13:55;;;;;;;9.35;2.22;;;12.30;99.90;;;;;;5102522;28;20032;-69
2023/11/05 20:16:22;;;;;;;5.07;1.45;;;12.30;99.90;;;;;;5094819;28;20024;-69
2023/11/05 20:18:48;;;;;;;6.65;2.50;;;12.30;99.90;;;;;;5094053;28;20024;-69
2023/11/05 20:21:13;;;;;;;11.02;3.70;;;12.40;99.90;;;;;;5078880;28;20035;-69
2023/11/05 20:23:42;;;;;;;3.73;1.13;;;12.40;99.90;;;;;;5073107;28;20433;-69
2023/11/05 20:26:08;;;;;;;7.45;3.45;;;12.40;99.90;;;;;;5071482;28;20111;-70
2023/11/05 20:28:33;;;;;;;4.10;1.85;;;12.40;99.90;;;;;;5072686;28;20503;-69